M I D A S
Marine Information and Data Acquisition System
Tripno 1708 of the Zeeleeuw from 2009-06-11 07:40:00 to 2009-06-12 14:09:40
Back to CruiseResearch ActivitiesStationsMapUnderway DataData graphs

EquipmentUnitsComment
TimeDGPSUTC
LatitudeDGPSDM.mWGS84
LongitudeDGPSDM.mWGS84
HeadingGyrodeg 
SOGDGPSknotsSpeed over ground
COGDGPSdegCourse over ground
DepthEcho soundermeters200 kHz
Missing or incorrect values are displayed as -999
Navigation data collected by the RV Zeeleeuw from 2009-06-11 07:40:00 to 2009-06-12 14:09:40
Time Latitude Longitude Heading SOG COG Depth
2009-06-11 07:42:10 51°13.638 2°55.973 117.7 3.1 299 -999
2009-06-11 07:44:10 51°13.695 2°55.801 116.9 3.6 298 -999
2009-06-11 07:46:10 51°13.714 2°55.727 62.7 1.3 254 -999
2009-06-11 07:48:10 51°13.779 2°55.678 331.1 4.59 328 -999
2009-06-11 07:50:10 51°13.998 2°55.508 336.1 7.9 334 -999
2009-06-11 07:52:10 51°14.239 2°55.289 324.1 8.5 320 -999
2009-06-11 07:54:10 51°14.423 2°54.915 303 9.09 290 -999
2009-06-11 07:56:10 51°14.358 2°54.366 260.8 11.8 257 -999
2009-06-11 07:58:10 51°14.208 2°53.743 248.3 12.69 245 -999
2009-06-11 08:00:10 51°14.03 2°53.138 247.4 12.5 244 -999
2009-06-11 08:02:10 51°13.851 2°52.544 244.4 12.5 244 -999
2009-06-11 08:04:10 51°13.66 2°51.954 244 12.5 242 -999
2009-06-11 08:06:10 51°13.497 2°51.476 244.9 7.9 241 -999
2009-06-11 08:08:10 51°13.39 2°51.331 196 3.29 204 -999
2009-06-11 08:10:10 51°13.284 2°51.232 213.1 4.29 214 -999
2009-06-11 08:12:10 51°13.196 2°51.047 245 4.4 239 -999
2009-06-11 08:14:10 51°13.131 2°50.885 246.1 3.2 237 -999
2009-06-11 08:16:10 51°13.073 2°50.751 244.1 3.2 234 -999
2009-06-11 08:18:10 51°13.009 2°50.598 242.1 3.5 233 -999
2009-06-11 08:20:10 51°12.944 2°50.445 244.1 3.5 237 -999
2009-06-11 08:22:10 51°12.877 2°50.298 243.5 3.39 235 -999
2009-06-11 08:24:10 51°12.811 2°50.153 244 3.39 231 -999
2009-06-11 08:26:10 51°12.747 2°50.007 244.6 3.39 236 -999
2009-06-11 08:28:10 51°12.687 2°49.857 245.4 3.29 238 -999
2009-06-11 08:30:10 51°12.623 2°49.701 244.1 3.6 236 -999
2009-06-11 08:32:10 51°12.559 2°49.545 245.5 3.39 238 -999
2009-06-11 08:34:10 51°12.496 2°49.409 243 3.1 229 -999
2009-06-11 08:36:10 51°12.435 2°49.282 247.9 3 234 -999
2009-06-11 08:38:10 51°12.366 2°49.166 230.1 3.2 217 -999
2009-06-11 08:40:10 51°12.272 2°49.072 218.5 3.29 212 -999
2009-06-11 08:42:10 51°12.194 2°48.969 238.5 2.79 226 -999
2009-06-11 08:44:10 51°12.142 2°48.874 253.5 2.2 235 -999
2009-06-11 08:46:10 51°12.187 2°48.802 17.8 3.6 23 -999
2009-06-11 08:48:10 51°12.345 2°49.168 59.6 10.3 58 -999
2009-06-11 08:50:10 51°12.53 2°49.634 58.2 10.4 56 -999
2009-06-11 08:52:10 51°12.712 2°50.099 58.2 10.3 58 -999
2009-06-11 08:54:10 51°12.913 2°50.536 51.7 10.3 49 -999
2009-06-11 08:56:10 51°13.126 2°50.958 53 10.19 48 -999
2009-06-11 08:58:10 51°13.334 2°51.376 52.6 10 54 -999
2009-06-11 09:00:10 51°13.43 2°51.371 327.3 2.6 310 -999
2009-06-11 09:02:10 51°13.438 2°51.333 337.1 0.29 226 -999
2009-06-11 09:04:10 51°13.414 2°51.331 11.5 0.9 182 -999
2009-06-11 09:06:10 51°13.384 2°51.325 19.8 0.9 190 -999
2009-06-11 09:08:10 51°13.354 2°51.316 16.8 0.9 190 -999
2009-06-11 09:10:10 51°13.33 2°51.31 15.5 0.1 71 -999
2009-06-11 09:12:10 51°13.433 2°51.555 61.1 8.9 62 -999
2009-06-11 09:14:10 51°13.594 2°52.014 61.6 10.4 59 -999
2009-06-11 09:16:10 51°13.756 2°52.498 61.2 10.4 65 -999
2009-06-11 09:18:10 51°13.95 2°52.956 55.2 10.3 56 -999
2009-06-11 09:20:10 51°14.152 2°53.399 55.1 10.4 55 -999
2009-06-11 09:22:10 51°14.352 2°53.837 55.2 10.4 49 -999
2009-06-11 09:24:10 51°14.652 2°54.036 7.2 10.3 357 -999
2009-06-11 09:26:10 51°14.983 2°53.874 345.6 10.5 338 -999
2009-06-11 09:28:10 51°15.315 2°53.696 348.6 10.4 343 -999
2009-06-11 09:30:10 51°15.643 2°53.503 344.3 10.69 338 -999
2009-06-11 09:32:10 51°15.975 2°53.298 345.6 10.59 339 -999
2009-06-11 09:34:10 51°16.299 2°53.086 343.5 10.59 337 -999
2009-06-11 09:36:10 51°16.631 2°52.878 344.3 10.8 340 -999
2009-06-11 09:38:10 51°16.956 2°52.676 343.6 10.4 338 -999
2009-06-11 09:40:10 51°17.283 2°52.478 345.5 10.5 340 -999
2009-06-11 09:42:10 51°17.609 2°52.3 347.6 10.4 340 -999
2009-06-11 09:44:10 51°17.938 2°52.117 346.8 10.5 343 -999
2009-06-11 09:46:10 51°18.268 2°51.931 348 10.69 340 -999
2009-06-11 09:48:10 51°18.596 2°51.743 347.3 10.5 340 -999
2009-06-11 09:50:10 51°18.927 2°51.548 346.5 10.59 339 -999
2009-06-11 09:52:10 51°19.262 2°51.381 351.5 10.59 345 -999
2009-06-11 09:54:10 51°19.593 2°51.223 351.8 10.4 344 -999
2009-06-11 09:56:10 51°19.926 2°51.067 352.3 10.5 345 -999
2009-06-11 09:58:10 51°20.264 2°50.906 351.3 10.69 344 -999
2009-06-11 10:00:10 51°20.604 2°50.736 352.1 10.69 344 -999
2009-06-11 10:02:10 51°20.939 2°50.565 351.8 10.8 341 -999
2009-06-11 10:04:10 51°21.282 2°50.4 351.6 10.69 343 -999
2009-06-11 10:06:10 51°21.627 2°50.237 351.5 10.8 344 -999
2009-06-11 10:08:10 51°21.965 2°50.073 351.8 10.69 343 -999
2009-06-11 10:10:10 51°22.305 2°49.908 351.5 10.59 343 -999
2009-06-11 10:12:10 51°22.643 2°49.755 352 10.69 343 -999
2009-06-11 10:14:10 51°22.978 2°49.599 349.1 10.4 344 -999
2009-06-11 10:16:10 51°23.301 2°49.4 348.1 10.5 339 -999
2009-06-11 10:18:10 51°23.63 2°49.197 347.8 10.59 342 -999
2009-06-11 10:20:10 51°23.962 2°48.979 348.3 10.5 340 -999
2009-06-11 10:22:10 51°24.291 2°48.77 350.1 10.8 339 -999
2009-06-11 10:24:10 51°24.629 2°48.589 352 10.8 343 -999
2009-06-11 10:26:10 51°24.929 2°48.412 351.8 6.2 334 -999
2009-06-11 10:28:10 51°24.903 2°48.206 208.8 4.59 210 -999
2009-06-11 10:30:10 51°24.77 2°48.128 195 4.29 206 -999
2009-06-11 10:32:10 51°24.648 2°47.942 235.4 4.79 232 -999
2009-06-11 10:34:10 51°24.584 2°47.725 261.8 4.29 250 -999
2009-06-11 10:36:10 51°24.526 2°47.505 258.6 4.09 245 -999
2009-06-11 10:38:10 51°24.467 2°47.32 249.9 3.89 238 -999
2009-06-11 10:40:10 51°24.399 2°47.148 247.6 3.79 238 -999
2009-06-11 10:42:10 51°24.327 2°46.986 245.5 3.7 234 -999
2009-06-11 10:44:10 51°24.258 2°46.826 246 3.6 236 -999
2009-06-11 10:46:10 51°24.192 2°46.67 246.4 3.7 233 -999
2009-06-11 10:48:10 51°24.141 2°46.515 269.8 3.2 253 -999
2009-06-11 10:50:10 51°24.113 2°46.351 263.8 3.29 248 -999
2009-06-11 10:52:10 51°24.064 2°46.203 259.6 3.2 243 -999
2009-06-11 10:54:10 51°24.015 2°46.05 259.8 3.2 242 -999
2009-06-11 10:56:10 51°23.966 2°45.888 260.5 3.39 246 -999
2009-06-11 10:58:10 51°23.916 2°45.723 250.5 3.7 238 -999
2009-06-11 11:00:10 51°23.825 2°45.589 220.5 3.7 216 -999
2009-06-11 11:02:10 51°23.723 2°45.485 207.6 3.5 211 -999
2009-06-11 11:04:10 51°23.616 2°45.389 204.8 3.6 209 -999
2009-06-11 11:06:10 51°23.516 2°45.283 228.3 3.7 222 -999
2009-06-11 11:08:10 51°23.434 2°45.151 240.4 3.39 226 -999
2009-06-11 11:10:10 51°23.37 2°45.027 246.1 2.6 229 -999
2009-06-11 11:12:10 51°23.326 2°44.92 272.3 3.1 258 -999
2009-06-11 11:14:10 51°23.423 2°44.916 48.1 4.4 50 -999
2009-06-11 11:16:10 51°23.547 2°45.279 61 8.69 59 -999
2009-06-11 11:18:10 51°23.69 2°45.68 57.3 8.5 56 -999
2009-06-11 11:20:10 51°23.856 2°46.059 53.3 8.9 56 -999
2009-06-11 11:22:10 51°24.023 2°46.452 55.5 8.8 53 -999
2009-06-11 11:24:10 51°24.192 2°46.837 55.3 8.9 54 -999
2009-06-11 11:26:10 51°24.359 2°47.224 54.6 8.9 52 -999
2009-06-11 11:28:10 51°24.527 2°47.616 55 9 57 -999
2009-06-11 11:30:10 51°24.697 2°48 54.5 8.9 54 -999
2009-06-11 11:32:10 51°24.906 2°48.317 38.1 8.4 23 -999
2009-06-11 11:34:10 51°25.019 2°48.275 331.1 0.9 270 -999
2009-06-11 11:36:10 51°25.002 2°48.247 340.3 1.1 196 -999
2009-06-11 11:38:10 51°24.966 2°48.229 18.5 1.19 199 -999
2009-06-11 11:40:10 51°24.93 2°48.209 33.2 1 201 -999
2009-06-11 11:42:10 51°24.892 2°48.194 28.3 1.1 192 -999
2009-06-11 11:44:10 51°24.866 2°48.181 14.9 0.2 235 -999
2009-06-11 11:46:10 51°24.965 2°48.256 40.2 5.9 43 -999
2009-06-11 11:48:10 51°25.084 2°48.712 67.5 10.59 69 -999
2009-06-11 11:50:10 51°25.148 2°49.264 88.2 10.69 89 -999
2009-06-11 11:52:10 51°25.113 2°49.834 90.7 10.9 96 -999
2009-06-11 11:54:10 51°25.095 2°50.419 87.9 11 96 -999
2009-06-11 11:56:10 51°25.081 2°51.008 89.9 11.09 90 -999
2009-06-11 11:58:10 51°25.079 2°51.59 85.4 10.9 91 -999
2009-06-11 13:00:10 51°26.271 3°10.336 83.2 12.09 85 -999
2009-06-11 13:02:10 51°26.447 3°10.901 52.5 11.59 55 -999
2009-06-11 13:04:10 51°26.691 3°11.374 43.5 11.59 51 -999
2009-06-11 13:06:10 51°26.948 3°11.844 44.8 11.59 49 -999
2009-06-11 13:08:10 51°27.152 3°12.16 8 4.2 13 -999
2009-06-11 13:10:10 51°27.162 3°11.995 269.3 4.09 260 -999
2009-06-11 13:12:10 51°27.182 3°11.843 302.3 3.2 309 -999
2009-06-11 13:14:10 51°27.289 3°11.883 11 3.29 33 -999
2009-06-11 13:16:10 51°27.377 3°11.982 8 3.39 36 -999
2009-06-11 13:18:10 51°27.467 3°12.134 29.1 3.89 49 -999
2009-06-11 13:20:10 51°27.532 3°12.281 28.1 3.1 61 -999
2009-06-11 13:22:10 51°27.579 3°12.416 28.5 2.89 62 -999
2009-06-11 13:24:10 51°27.619 3°12.571 47.7 3.5 72 -999
2009-06-11 13:26:10 51°27.651 3°12.76 55.3 3.7 73 -999
2009-06-11 13:28:10 51°27.683 3°12.954 58.8 3.79 78 -999
2009-06-11 13:30:10 51°27.705 3°13.157 66.2 3.89 81 -999
2009-06-11 13:32:10 51°27.722 3°13.357 65.5 3.7 82 -999
2009-06-11 13:34:10 51°27.73 3°13.549 76.5 3.7 90 -999
2009-06-11 13:36:10 51°27.719 3°13.746 94 3.7 100 -999
2009-06-11 13:38:10 51°27.674 3°13.925 131.5 3.5 122 -999
2009-06-11 13:40:10 51°27.606 3°14.056 165.8 2.89 136 -999
2009-06-11 13:42:10 51°27.532 3°14.154 177.1 2.89 142 -999
2009-06-11 13:44:10 51°27.453 3°14.247 182.8 3 149 -999
2009-06-11 13:46:10 51°27.355 3°14.299 198.1 3.39 170 -999
2009-06-11 13:48:10 51°27.267 3°14.289 231 2.1 183 -999
2009-06-11 13:50:10 51°27.209 3°14.258 245.4 3.39 221 -999
2009-06-11 13:52:10 51°26.996 3°14.201 187 6.4 159 -999
2009-06-11 13:54:10 51°26.992 3°14.427 47 3 73 -999
2009-06-11 13:56:10 51°27.013 3°14.544 24.8 2.1 75 -999
2009-06-11 13:58:10 51°27.028 3°14.649 15.6 2 76 -999
2009-06-11 14:00:10 51°27.044 3°14.748 5.7 1.8 78 -999
2009-06-11 14:02:10 51°27.077 3°14.913 77.4 5.09 87 -999
2009-06-11 14:04:10 51°26.873 3°15.096 171.4 9.3 162 -999
2009-06-11 14:06:10 51°26.516 3°15.276 171 11.69 164 -999
2009-06-11 14:08:10 51°26.138 3°15.449 170.3 11.69 163 -999
2009-06-11 14:10:10 51°25.761 3°15.607 174.4 11.59 168 -999
2009-06-11 14:12:10 51°25.376 3°15.697 183.3 11.4 176 -999
2009-06-11 14:14:10 51°24.992 3°15.825 176.5 11.8 162 -999
2009-06-11 14:16:10 51°24.639 3°16.163 152.6 12.3 148 -999
2009-06-11 14:18:10 51°24.309 3°16.604 149.1 12.9 144 -999
2009-06-11 14:20:10 51°23.998 3°17.078 142.5 12.59 138 -999
2009-06-11 14:22:10 51°23.694 3°17.565 149 13.4 132 -999
2009-06-11 14:24:10 51°23.367 3°18.004 152.4 12.5 142 -999
2009-06-11 14:26:10 51°23.054 3°18.402 149.4 10.3 137 -999
2009-06-11 14:28:10 51°22.862 3°18.696 152.9 6.9 137 -999
2009-06-11 14:30:10 51°22.721 3°18.87 197 3.1 170 -999
2009-06-11 14:32:10 51°22.678 3°18.801 241.3 2.5 219 -999
2009-06-11 14:34:10 51°22.634 3°18.685 264.8 1.5 269 -999
2009-06-11 14:36:10 51°22.649 3°18.683 278.6 0.8 58 -999
2009-06-11 14:38:10 51°22.658 3°18.741 261.5 1.19 84 -999
2009-06-11 14:40:10 51°22.66 3°18.812 254.1 1.39 91 -999
2009-06-11 14:42:10 51°22.66 3°18.882 253.9 1.19 88 -999
2009-06-11 14:44:10 51°22.662 3°18.938 258.5 0.9 85 -999
2009-06-11 14:46:10 51°22.666 3°18.988 265.5 0.9 84 -999
2009-06-11 14:48:10 51°22.677 3°19.034 276.6 0.9 64 -999
2009-06-11 14:50:10 51°22.69 3°19.086 283.1 1.19 78 -999
2009-06-11 14:52:10 51°22.706 3°19.156 290.1 1.1 26 -999
2009-06-11 14:54:10 51°22.781 3°19.07 282.3 4.7 289 -999
2009-06-11 14:56:10 51°22.838 3°18.694 275.8 8.59 276 -999
2009-06-11 14:58:10 51°22.875 3°18.215 275.1 9.19 278 -999
2009-06-11 15:00:10 51°22.89 3°17.719 269.1 9.3 272 -999
2009-06-11 15:02:10 51°22.886 3°17.222 265.8 9.4 268 -999
2009-06-11 15:04:10 51°22.857 3°16.718 264.6 9.59 265 -999
2009-06-11 15:06:10 51°22.817 3°16.205 262.6 9.8 264 -999
2009-06-11 15:08:10 51°22.777 3°15.691 263.6 9.69 262 -999
2009-06-11 15:10:10 51°22.739 3°15.176 263.6 9.69 264 -999
2009-06-11 15:12:10 51°22.703 3°14.655 266.3 9.9 264 -999
2009-06-11 15:14:10 51°22.664 3°14.136 263 9.8 263 -999
2009-06-11 15:16:10 51°22.629 3°13.655 265.3 7.79 265 -999
2009-06-11 15:18:10 51°22.612 3°13.38 265 3 266 -999
2009-06-11 15:20:10 51°22.6 3°13.332 242.8 0.8 172 -999
2009-06-11 15:22:10 51°22.565 3°13.338 238.6 1.39 204 -999
2009-06-11 15:24:10 51°22.61 3°13.266 320.1 3.89 348 -999
2009-06-11 15:26:10 51°22.737 3°13.333 353.8 3.7 18 -999
2009-06-11 15:28:10 51°22.839 3°13.395 352.1 3.29 25 -999
2009-06-11 15:30:10 51°22.938 3°13.488 3.7 3.5 31 -999
2009-06-11 15:32:10 51°23.037 3°13.584 0.4 3.5 30 -999
2009-06-11 15:34:10 51°23.137 3°13.674 358.3 3.2 25 -999
2009-06-11 15:36:10 51°23.242 3°13.767 19.6 4 36 -999
2009-06-11 15:38:10 51°23.323 3°13.931 52.2 3.79 63 -999
2009-06-11 15:40:10 51°23.365 3°14.113 68.5 3.6 68 -999
2009-06-11 15:42:10 51°23.405 3°14.29 68.4 3.5 69 -999
2009-06-11 15:44:10 51°23.444 3°14.466 69.2 3.5 72 -999
2009-06-11 15:46:10 51°23.48 3°14.648 72.7 3.6 74 -999
2009-06-11 15:48:10 51°23.516 3°14.829 70.7 3.5 71 -999
2009-06-11 15:50:10 51°23.555 3°15.001 69.7 3.39 69 -999
2009-06-11 15:52:10 51°23.591 3°15.17 71.2 3.29 70 -999
2009-06-11 15:54:10 51°23.627 3°15.338 69.5 3.39 70 -999
2009-06-11 15:56:10 51°23.656 3°15.516 85.7 3.7 82 -999
2009-06-11 15:58:10 51°23.639 3°15.709 123.5 3.5 105 -999
2009-06-11 16:00:10 51°23.585 3°15.831 167.4 2.5 139 -999
2009-06-11 16:02:10 51°23.517 3°15.86 223.6 2.1 205 -999
2009-06-11 16:04:10 51°23.368 3°15.529 237 10 234 -999
2009-06-11 16:06:10 51°23.232 3°15.038 251.5 10.09 249 -999
2009-06-11 16:08:10 51°23.109 3°14.535 249.5 10.3 249 -999
2009-06-11 16:10:10 51°22.982 3°14.026 248.3 10.3 249 -999
2009-06-11 16:12:10 51°22.879 3°13.5 257 10.4 257 -999
2009-06-11 16:14:10 51°22.795 3°12.968 256.1 10.19 257 -999
2009-06-11 16:16:10 51°22.697 3°12.443 251.6 10.3 250 -999
2009-06-11 16:18:10 51°22.588 3°11.926 252.5 9.9 251 -999
2009-06-11 16:20:10 51°22.518 3°11.623 251 4.7 250 -999
2009-06-11 16:22:10 51°22.501 3°11.435 268.6 3.79 272 -999
2009-06-11 16:24:10 51°22.515 3°11.29 280.1 1.8 299 -999
2009-06-11 16:26:10 51°22.556 3°11.295 320.1 1.39 23 -999
2009-06-11 16:28:10 51°22.59 3°11.341 326.1 1.3 48 -999
2009-06-11 16:30:10 51°22.619 3°11.404 340.1 1.5 56 -999
2009-06-11 16:32:10 51°22.654 3°11.469 342.5 1.6 45 -999
2009-06-11 16:34:10 51°22.697 3°11.526 325.1 1.69 38 -999
2009-06-11 16:36:10 51°22.74 3°11.548 289.3 1.6 315 -999
2009-06-11 16:38:10 51°22.623 3°11.481 208.5 6 201 -999
2009-06-11 16:40:10 51°22.47 3°11.365 211.6 3.5 207 -999
2009-06-11 16:42:10 51°22.486 3°11.319 292 1.3 8 -999
2009-06-11 16:44:10 51°22.53 3°11.373 324.6 1.8 47 -999
2009-06-11 16:46:10 51°22.563 3°11.458 344.8 2 62 -999
2009-06-11 16:48:10 51°22.628 3°11.513 336.8 4.59 348 -999
2009-06-11 16:50:10 51°22.825 3°11.199 307.1 10.8 311 -999
2009-06-11 16:52:10 51°23.045 3°10.728 299.8 10.8 302 -999
2009-06-11 16:54:10 51°23.141 3°10.191 273 10.4 272 -999
2009-06-11 16:56:10 51°22.989 3°9.71 233.5 10.3 234 -999
2009-06-11 16:58:10 51°22.752 3°9.317 226 10.09 226 -999
2009-06-11 17:00:10 51°22.488 3°8.98 218 10.4 212 -999
2009-06-11 17:02:10 51°22.211 3°8.652 220 10.4 213 -999
2009-06-11 17:04:10 51°21.943 3°8.317 219.9 10.5 219 -999
2009-06-11 17:06:10 51°21.696 3°7.947 225.8 10 225 -999
2009-06-11 17:08:10 51°21.455 3°7.566 227 10.19 225 -999
2009-06-11 17:10:10 51°21.197 3°7.21 222.4 10.19 221 -999
2009-06-11 17:12:10 51°20.943 3°6.866 222 10 219 -999
2009-06-11 17:14:10 51°20.687 3°6.514 221.1 10.09 219 -999
2009-06-11 17:16:10 51°20.419 3°6.176 220.9 10.19 217 -999
2009-06-11 17:18:10 51°20.156 3°5.844 219.6 10.09 219 -999
2009-06-11 17:20:10 51°19.9 3°5.511 221.5 10 222 -999
2009-06-11 17:22:10 51°19.654 3°5.146 223.3 10.3 227 -999
2009-06-11 17:24:10 51°19.418 3°4.755 228 10.19 230 -999
2009-06-11 17:26:10 51°19.193 3°4.346 230.5 10.4 232 -999
2009-06-11 17:28:10 51°18.981 3°3.908 233.1 10.4 234 -999
2009-06-11 17:30:10 51°18.778 3°3.471 233 10.19 237 -999
2009-06-11 17:32:10 51°18.572 3°3.035 233.3 10.3 232 -999
2009-06-11 17:34:10 51°18.364 3°2.593 234.5 10.5 231 -999
2009-06-11 17:36:10 51°18.166 3°2.14 236.6 10.3 235 -999
2009-06-11 17:38:10 51°17.979 3°1.687 238.1 10.19 238 -999
2009-06-11 17:40:10 51°17.797 3°1.224 237.9 10.3 239 -999
2009-06-11 17:42:10 51°17.617 3°0.759 237.9 10.3 236 -999
2009-06-11 17:44:10 51°17.425 3°0.302 236.5 10.3 236 -999
2009-06-11 17:46:10 51°17.232 2°59.852 237.1 10.19 236 -999
2009-06-11 17:48:10 51°17.028 2°59.409 234.4 10.4 234 -999
2009-06-11 17:50:10 51°16.846 2°58.942 240 10.3 239 -999
2009-06-11 17:52:10 51°16.671 2°58.455 240.9 10.5 238 -999
2009-06-11 17:54:10 51°16.496 2°57.961 239.1 10.69 241 -999
2009-06-11 17:56:10 51°16.318 2°57.463 239.9 10.8 242 -999
2009-06-11 17:58:10 51°16.136 2°56.971 240.5 10.8 238 -999
2009-06-11 18:00:10 51°15.937 2°56.494 234.3 10.69 233 -999
2009-06-11 18:02:10 51°15.729 2°56.036 233.8 10.59 234 -999
2009-06-11 18:04:10 51°15.526 2°55.59 235.6 10.5 235 -999
2009-06-11 18:06:10 51°15.325 2°55.144 234 10.19 233 -999
2009-06-11 18:08:10 51°15.085 2°54.766 223 10.19 221 -999
2009-06-11 18:10:10 51°14.745 2°54.64 183.9 10.9 177 -999
2009-06-11 18:12:10 51°14.423 2°54.929 139.1 11.59 134 -999
2009-06-11 18:14:10 51°14.197 2°55.351 138.4 9 138 -999
2009-06-11 18:16:10 51°13.965 2°55.536 156 7.9 155 -999
2009-06-11 18:18:10 51°13.745 2°55.733 143 6.7 140 -999
2009-06-11 18:20:10 51°13.665 2°55.934 109.2 3.5 106 -999
2009-06-11 18:22:10 51°13.661 2°55.959 131.5 0.1 246 -999
2009-06-11 18:24:10 51°13.663 2°55.961 128 0.2 179 -999
2009-06-11 18:26:10 51°13.662 2°55.961 122.9 0.1 194 -999
2009-06-11 18:28:10 51°13.679 2°55.896 110.4 3.39 293 -999
2009-06-11 18:30:10 51°13.697 2°55.794 90 2.1 277 -999
2009-06-11 18:32:10 51°13.699 2°55.767 29.8 0.29 305 -999
2009-06-11 18:34:10 51°13.823 2°55.641 326 7.4 327 -999
2009-06-11 18:36:10 51°14.09 2°55.437 338.1 9.4 336 -999
2009-06-11 18:38:10 51°14.346 2°55.104 314.8 10.9 313 -999
2009-06-11 18:40:10 51°14.413 2°54.684 257.8 5 258 -999
2009-06-11 18:42:10 51°14.367 2°54.508 239.5 4.5 237 -999
2009-06-11 18:44:10 51°14.18 2°54.076 237.9 11.19 240 -999
2009-06-11 18:46:10 51°13.991 2°53.572 240 11 239 -999
2009-06-11 18:48:10 51°13.804 2°53.066 239.5 11.09 241 -999
2009-06-11 18:50:10 51°13.616 2°52.56 239.6 11.09 241 -999
2009-06-11 18:52:10 51°13.427 2°52.056 239.9 11.19 240 -999
2009-06-11 18:54:10 51°13.237 2°51.543 240 11.3 239 -999
2009-06-11 18:56:10 51°13.044 2°51.032 240.6 11.19 240 -999
2009-06-11 18:58:10 51°12.869 2°50.498 245.1 11.4 245 -999
2009-06-11 19:00:10 51°12.701 2°49.943 246.5 11.59 243 -999
2009-06-11 19:02:10 51°12.525 2°49.395 245.3 11.69 245 -999
2009-06-11 19:04:10 51°12.358 2°48.838 247 11.69 247 -999
2009-06-11 19:06:10 51°12.206 2°48.276 249.3 11.59 246 -999
2009-06-11 19:08:10 51°12.052 2°47.709 247.5 11.69 247 -999
2009-06-11 19:10:10 51°11.901 2°47.137 249.4 11.59 247 -999
2009-06-11 19:12:10 51°11.748 2°46.565 247.9 11.8 247 -999
2009-06-11 19:14:10 51°11.591 2°45.996 247 11.8 245 -999
2009-06-11 19:16:10 51°11.438 2°45.416 249 11.9 247 -999
2009-06-11 19:18:10 51°11.291 2°45.018 211.5 4.79 209 -999
2009-06-11 19:20:10 51°11.19 2°44.949 212.5 3.39 215 -999
2009-06-11 19:22:10 51°11.154 2°44.743 289 3.79 286 -999
2009-06-11 19:24:10 51°11.187 2°44.679 319.1 0.9 322 -999
2009-06-11 19:26:10 51°11.196 2°44.673 336.6   140 -999
2009-06-11 19:28:10 51°11.192 2°44.679 0.1 0.2 148 -999
2009-06-11 19:30:10 51°11.184 2°44.687 7.5 0.29 141 -999
2009-06-11 19:32:10 51°11.178 2°44.697 3.2 0.2 142 -999
2009-06-11 19:34:10 51°11.175 2°44.706 0.4 0.29 84 -999
2009-06-11 19:36:10 51°11.177 2°44.713 351.5 0.1 56 -999
2009-06-11 19:38:10 51°11.179 2°44.717 349.8 0.1 118 -999
2009-06-11 19:40:10 51°11.182 2°44.721 344.1 0.2 33 -999
2009-06-11 19:42:10 51°11.183 2°44.724 344.8 0.1 76 -999
2009-06-11 19:44:10 51°11.184 2°44.727 342.3 0.1 41 -999
2009-06-11 19:46:10 51°11.184 2°44.727 339.8 0.1 272 -999
2009-06-11 19:48:10 51°11.183 2°44.725 341 0.1 205 -999
2009-06-11 19:50:10 51°11.179 2°44.72 348.1 0.2 223 -999
2009-06-11 19:52:10 51°11.177 2°44.713 354 0.2 251 -999
2009-06-11 19:54:10 51°11.175 2°44.706 358.6 0.1 233 -999
2009-06-11 19:56:10 51°11.175 2°44.698 6.5 0.29 282 -999
2009-06-11 19:58:10 51°11.178 2°44.684 6.9 0.29 278 -999
2009-06-11 20:00:10 51°11.181 2°44.667 3.5 0.4 293 -999
2009-06-11 20:02:10 51°11.185 2°44.656 12 0.2 323 -999
2009-06-11 20:04:10 51°11.192 2°44.643 7.5 0.5 307 -999
2009-06-11 20:06:10 51°11.195 2°44.632 8.8 0.2 260 -999
2009-06-11 20:08:10 51°11.197 2°44.627 17.3 0.2 339 -999
2009-06-11 20:10:10 51°11.205 2°44.628 22.6 0.2 27 -999
2009-06-11 20:12:10 51°11.212 2°44.632 30.3 0.2 352 -999
2009-06-11 20:14:10 51°11.214 2°44.633 37.8 0.1 284 -999
2009-06-11 20:16:10 51°11.214 2°44.633 38 0.1 238 -999
2009-06-11 20:18:10 51°11.214 2°44.632 38.3 0.1 244 -999
2009-06-11 20:20:10 51°11.213 2°44.631 39   42 -999
2009-06-11 20:22:10 51°11.212 2°44.631 35.5 0.2 318 -999
2009-06-11 20:24:10 51°11.212 2°44.631 34.8   101 -999
2009-06-11 20:26:10 51°11.211 2°44.631 32.7 0.2 315 -999
2009-06-11 20:28:10 51°11.21 2°44.63 33.8   319 -999
2009-06-11 20:30:10 51°11.209 2°44.629 32.2 0.1 223 -999
2009-06-11 20:32:10 51°11.21 2°44.631 29.3 0.1 30 -999
2009-06-11 20:34:10 51°11.209 2°44.63 26.6 0.1 211 -999
2009-06-11 20:36:10 51°11.209 2°44.649 45.3 0.59 73 -999
2009-06-11 20:38:10 51°11.207 2°44.666 48.7 0.2 190 -999
2009-06-11 20:40:10 51°11.202 2°44.655 24.3 0.4 230 -999
2009-06-11 20:42:10 51°11.196 2°44.636 4.4 0.5 234 -999
2009-06-11 20:44:10 51°11.185 2°44.622 8.5 0.4 206 -999
2009-06-11 20:46:10 51°11.169 2°44.61 17.1 0.59 226 -999
2009-06-11 20:48:10 51°11.152 2°44.602 29.8 0.59 197 -999
2009-06-11 20:50:10 51°11.21 2°44.65 33.8 2.89 41 -999
2009-06-11 20:52:10 51°11.263 2°44.845 68.5 4.4 80 -999
2009-06-11 20:54:10 51°11.295 2°45.063 69 5 72 -999
2009-06-11 20:56:10 51°11.37 2°45.332 64.7 6.09 70 -999
2009-06-11 20:58:10 51°11.455 2°45.677 66 7.29 69 -999
2009-06-11 21:00:10 51°11.55 2°46.039 64 7.5 65 -999
2009-06-11 21:02:10 51°11.662 2°46.386 59.5 7.29 60 -999
2009-06-11 21:04:10 51°11.778 2°46.727 61.3 7.2 62 -999
2009-06-11 21:06:10 51°11.889 2°47.062 63.2 7.09 64 -999
2009-06-11 21:08:10 51°11.999 2°47.39 64 7 62 -999
2009-06-11 21:10:10 51°12.104 2°47.718 64.2 6.79 65 -999
2009-06-11 21:12:10 51°12.209 2°48.049 64.7 7.09 60 -999
2009-06-11 21:14:10 51°12.324 2°48.376 71.9 7.2 71 -999
2009-06-11 21:16:10 51°12.465 2°48.681 40.5 7.5 43 -999
2009-06-11 21:18:10 51°12.547 2°49.025 69.5 7 64 -999
2009-06-11 21:20:10 51°12.69 2°49.327 56.5 6.9 63 -999
2009-06-11 21:22:10 51°12.802 2°49.657 54 7.29 59 -999
2009-06-11 21:24:10 51°12.929 2°49.976 55.2 7.09 53 -999
2009-06-11 21:26:10 51°13.052 2°50.302 54.2 7.2 59 -999
2009-06-11 21:28:10 51°13.178 2°50.626 54.6 7.09 57 -999
2009-06-11 21:30:10 51°13.303 2°50.954 54.1 7.29 58 -999
2009-06-11 21:32:10 51°13.428 2°51.284 54.8 7.29 62 -999
2009-06-11 21:34:10 51°13.553 2°51.612 53.8 7.29 62 -999
2009-06-11 21:36:10 51°13.682 2°51.941 53.6 7.29 56 -999
2009-06-11 21:38:10 51°13.799 2°52.279 56.7 7.2 63 -999
2009-06-11 21:40:10 51°13.917 2°52.614 54.8 7.2 56 -999
2009-06-11 21:42:10 51°14.023 2°52.9 53.1 5.09 57 -999
2009-06-11 21:44:10 51°14.059 2°53.099 81.2 4.29 90 -999
2009-06-11 21:46:10 51°14.107 2°53.264 45.2 2.79 44 -999
2009-06-11 21:48:10 51°14.163 2°53.365 49.2 2.29 58 -999
2009-06-11 21:50:10 51°14.173 2°53.482 78.9 2.5 90 -999
2009-06-11 21:52:10 51°14.218 2°53.638 52.7 4.09 55 -999
2009-06-11 21:54:10 51°14.29 2°53.898 61.6 5.59 69 -999
2009-06-11 21:56:10 51°14.363 2°54.177 61.2 5.59 65 -999
2009-06-11 21:58:10 51°14.436 2°54.458 63.3 5.9 72 -999
2009-06-11 22:00:10 51°14.437 2°54.764 96 5.79 93 -999
2009-06-11 22:02:10 51°14.36 2°55.046 129.1 6.59 130 -999
2009-06-11 22:04:10 51°14.25 2°55.279 139.5 4.7 134 -999
2009-06-11 22:06:10 51°14.153 2°55.387 163.5 3 161 -999
2009-06-11 22:08:10 51°14.067 2°55.45 163.1 3 164 -999
2009-06-11 22:10:10 51°13.983 2°55.521 155.5 2.79 154 -999
2009-06-11 22:12:10 51°13.896 2°55.575 157.5 2.7 158 -999
2009-06-11 22:14:10 51°13.815 2°55.631 152.1 2.7 150 -999
2009-06-11 22:16:10 51°13.752 2°55.72 132.9 2.39 134 -999
2009-06-11 22:18:10 51°13.707 2°55.813 116.7 2.1 117 -999
2009-06-11 22:20:10 51°13.672 2°55.902 127.7 1.8 130 -999
2009-06-11 22:22:10 51°13.659 2°55.95 114.5 0.1 71 -999
2009-06-11 22:24:10 51°13.656 2°55.964 124.7 0.29 89 -999
2009-06-11 22:26:10 51°13.658 2°55.967 127.7 0.1 234 -999
2009-06-11 22:28:10 51°13.661 2°55.96 131 0.2 335 -999
2009-06-11 22:30:10 51°13.663 2°55.959 127   162 -999
2009-06-11 22:32:10 51°13.663 2°55.959 127.2   31 -999
2009-06-11 22:34:10 51°13.663 2°55.959 127   345 -999
2009-06-11 22:36:10 51°13.663 2°55.959 126.4   324 -999
2009-06-11 22:38:10 51°13.663 2°55.959 126.7   343 -999
2009-06-11 22:40:10 51°13.664 2°55.959 126.5   199 -999
2009-06-11 22:42:10 51°13.664 2°55.959 126.5   338 -999
2009-06-11 22:44:10 51°13.66 2°55.959 126.4   282 -999
2009-06-11 22:46:10 51°13.662 2°55.96 126.2   311 -999
2009-06-11 22:48:10 51°13.663 2°55.96 126.2   313 -999
2009-06-11 22:50:10 51°13.663 2°55.96 126   7 -999
2009-06-11 22:52:10 51°13.663 2°55.96 125.7   40 -999
2009-06-11 22:54:10 51°13.664 2°55.959 125.7   327 -999
2009-06-11 22:56:10 51°13.663 2°55.959 125.9   356 -999
2009-06-11 22:58:10 51°13.664 2°55.96 126.4   7 -999
2009-06-11 23:00:10 51°13.662 2°55.959 125.9   344 -999
2009-06-11 23:02:10 51°13.662 2°55.959 125.7   26 -999
2009-06-11 23:04:10 51°13.663 2°55.96 126.4 0.1 23 -999
2009-06-11 23:06:10 51°13.663 2°55.96 127   109 -999
2009-06-11 23:08:10 51°13.663 2°55.961 126.2   143 -999
2009-06-11 23:10:10 51°13.663 2°55.96 126   175 -999
2009-06-11 23:12:10 51°13.664 2°55.959 126.7   218 -999
2009-06-11 23:14:10 51°13.665 2°55.959 126.5   338 -999
2009-06-11 23:16:10 51°13.664 2°55.959 127.2   173 -999
2009-06-11 23:18:10 51°13.665 2°55.959 126.4   241 -999
2009-06-11 23:20:10 51°13.665 2°55.959 126   186 -999
2009-06-11 23:22:10 51°13.664 2°55.959 127.2   288 -999
2009-06-11 23:24:10 51°13.664 2°55.959 127.2   15 -999
2009-06-11 23:26:10 51°13.664 2°55.96 127.2   263 -999
2009-06-11 23:28:10 51°13.664 2°55.96 127   265 -999
2009-06-11 23:30:10 51°13.664 2°55.96 127.2   272 -999
2009-06-11 23:32:10 51°13.664 2°55.959 127.4   269 -999
2009-06-11 23:34:10 51°13.663 2°55.959 127.7   264 -999
2009-06-11 23:36:10 51°13.664 2°55.959 127.5   273 -999
2009-06-11 23:38:10 51°13.664 2°55.959 126.5   242 -999
2009-06-11 23:40:10 51°13.664 2°55.959 127   273 -999
2009-06-11 23:42:10 51°13.664 2°55.959 127.5   275 -999
2009-06-11 23:44:10 51°13.664 2°55.96 127.2   247 -999
2009-06-11 23:46:10 51°13.664 2°55.96 127.2   231 -999
2009-06-11 23:48:10 51°13.663 2°55.959 127.2   208 -999
2009-06-11 23:50:10 51°13.663 2°55.959 127   291 -999
2009-06-11 23:52:10 51°13.664 2°55.959 127   25 -999
2009-06-11 23:54:10 51°13.663 2°55.958 127.4   36 -999
2009-06-11 23:56:10 51°13.663 2°55.958 127.4   357 -999
2009-06-11 23:58:10 51°13.663 2°55.958 127.4   341 -999